sensor_id;sensor_type;location;lat;lon;timestamp;pressure;altitude;pressure_sealevel;temperature;humidity
7264;BME280;3673;52.480;13.348;2023-02-21T00:01:57;100788.09;;;12.96;68.24
7264;BME280;3673;52.480;13.348;2023-02-21T00:04:42;100782.56;;;13.26;67.27
7264;BME280;3673;52.480;13.348;2023-02-21T00:07:28;100787.63;;;13.41;66.13
7264;BME280;3673;52.480;13.348;2023-02-21T00:10:14;100785.50;;;12.94;69.00
7264;BME280;3673;52.480;13.348;2023-02-21T00:12:59;100778.31;;;13.14;68.33
7264;BME280;3673;52.480;13.348;2023-02-21T00:15:44;100779.53;;;12.77;68.31
7264;BME280;3673;52.480;13.348;2023-02-21T00:18:31;100775.13;;;12.80;69.76
7264;BME280;3673;52.480;13.348;2023-02-21T00:21:16;100767.88;;;13.10;67.54
7264;BME280;3673;52.480;13.348;2023-02-21T00:24:02;100761.91;;;12.88;68.31
7264;BME280;3673;52.480;13.348;2023-02-21T00:26:47;100768.09;;;12.81;68.70
7264;BME280;3673;52.480;13.348;2023-02-21T00:29:32;100760.28;;;12.75;69.06
7264;BME280;3673;52.480;13.348;2023-02-21T00:32:16;100770.03;;;12.64;69.39
7264;BME280;3673;52.480;13.348;2023-02-21T00:35:01;100763.81;;;12.72;68.97
7264;BME280;3673;52.480;13.348;2023-02-21T00:37:49;100771.47;;;12.95;68.14
7264;BME280;3673;52.480;13.348;2023-02-21T00:40:35;100757.56;;;12.85;69.19
7264;BME280;3673;52.480;13.348;2023-02-21T00:43:26;100756.94;;;13.45;68.08
7264;BME280;3673;52.480;13.348;2023-02-21T00:46:11;100761.59;;;13.21;67.98
7264;BME280;3673;52.480;13.348;2023-02-21T00:48:55;100755.97;;;13.52;67.79
7264;BME280;3673;52.480;13.348;2023-02-21T00:51:40;100755.66;;;13.04;68.11
7264;BME280;3673;52.480;13.348;2023-02-21T00:54:24;100748.88;;;12.80;68.10
7264;BME280;3673;52.480;13.348;2023-02-21T00:57:10;100761.13;;;13.61;67.07
7264;BME280;3673;52.480;13.348;2023-02-21T00:59:54;100762.47;;;13.22;67.59
7264;BME280;3673;52.480;13.348;2023-02-21T01:02:40;100750.34;;;13.06;67.69
7264;BME280;3673;52.480;13.348;2023-02-21T01:05:24;100755.75;;;12.94;68.37
7264;BME280;3673;52.480;13.348;2023-02-21T01:08:09;100754.88;;;12.91;68.05
7264;BME280;3673;52.480;13.348;2023-02-21T01:10:53;100751.16;;;13.17;68.70
7264;BME280;3673;52.480;13.348;2023-02-21T01:13:39;100738.19;;;13.00;68.55
7264;BME280;3673;52.480;13.348;2023-02-21T01:16:28;100733.56;;;13.22;68.78
7264;BME280;3673;52.480;13.348;2023-02-21T01:19:12;100736.53;;;12.90;69.27
7264;BME280;3673;52.480;13.348;2023-02-21T01:21:57;100731.47;;;12.70;69.74
7264;BME280;3673;52.480;13.348;2023-02-21T01:24:42;100724.66;;;13.35;68.44
7264;BME280;3673;52.480;13.348;2023-02-21T01:27:26;100726.94;;;12.87;69.34
7264;BME280;3673;52.480;13.348;2023-02-21T01:30:12;100734.09;;;13.50;67.48
7264;BME280;3673;52.480;13.348;2023-02-21T01:32:57;100722.88;;;13.35;67.12
7264;BME280;3673;52.480;13.348;2023-02-21T01:35:41;100720.91;;;12.75;68.22
7264;BME280;3673;52.480;13.348;2023-02-21T01:38:26;100735.34;;;13.20;67.39
7264;BME280;3673;52.480;13.348;2023-02-21T01:41:11;100726.69;;;13.13;68.10
7264;BME280;3673;52.480;13.348;2023-02-21T01:44:00;100711.34;;;12.71;70.29
7264;BME280;3673;52.480;13.348;2023-02-21T01:46:47;100715.38;;;13.02;69.08
7264;BME280;3673;52.480;13.348;2023-02-21T01:49:32;100706.41;;;13.21;68.27
7264;BME280;3673;52.480;13.348;2023-02-21T01:52:19;100706.53;;;13.14;68.45
7264;BME280;3673;52.480;13.348;2023-02-21T01:55:04;100711.00;;;13.03;67.81
7264;BME280;3673;52.480;13.348;2023-02-21T01:57:50;100711.47;;;13.39;67.26
7264;BME280;3673;52.480;13.348;2023-02-21T02:00:35;100715.53;;;12.88;69.24
7264;BME280;3673;52.480;13.348;2023-02-21T02:03:21;100701.28;;;13.14;68.19
7264;BME280;3673;52.480;13.348;2023-02-21T02:06:07;100689.16;;;13.68;67.22
7264;BME280;3673;52.480;13.348;2023-02-21T02:08:52;100703.03;;;13.13;68.39
7264;BME280;3673;52.480;13.348;2023-02-21T02:12:13;100694.41;;;13.69;66.78
7264;BME280;3673;52.480;13.348;2023-02-21T02:15:17;100705.25;;;13.47;67.34
7264;BME280;3673;52.480;13.348;2023-02-21T02:18:06;100702.78;;;13.31;67.79
7264;BME280;3673;52.480;13.348;2023-02-21T02:24:31;100696.91;;;13.13;67.41
7264;BME280;3673;52.480;13.348;2023-02-21T02:27:35;100702.09;;;13.19;66.79
7264;BME280;3673;52.480;13.348;2023-02-21T02:30:39;100706.22;;;13.99;65.59
7264;BME280;3673;52.480;13.348;2023-02-21T02:36:29;100676.91;;;13.67;66.33
7264;BME280;3673;52.480;13.348;2023-02-21T02:39:04;100680.22;;;13.78;66.20
7264;BME280;3673;52.480;13.348;2023-02-21T02:41:46;100683.28;;;13.49;66.77
7264;BME280;3673;52.480;13.348;2023-02-21T02:44:20;100675.44;;;13.46;66.66
7264;BME280;3673;52.480;13.348;2023-02-21T02:46:51;100683.59;;;13.25;68.21
7264;BME280;3673;52.480;13.348;2023-02-21T02:49:21;100675.13;;;13.69;67.18
7264;BME280;3673;52.480;13.348;2023-02-21T02:51:52;100680.53;;;13.60;67.02
7264;BME280;3673;52.480;13.348;2023-02-21T02:54:19;100679.31;;;13.19;67.68
7264;BME280;3673;52.480;13.348;2023-02-21T02:56:47;100679.41;;;13.76;67.15
7264;BME280;3673;52.480;13.348;2023-02-21T02:59:18;100675.63;;;13.34;67.27
7264;BME280;3673;52.480;13.348;2023-02-21T03:02:19;100700.94;;;13.39;67.64
7264;BME280;3673;52.480;13.348;2023-02-21T03:05:10;100672.88;;;13.43;67.08
7264;BME280;3673;52.480;13.348;2023-02-21T03:07:50;100661.81;;;13.81;66.18
7264;BME280;3673;52.480;13.348;2023-02-21T03:10:32;100674.44;;;13.55;66.31
7264;BME280;3673;52.480;13.348;2023-02-21T03:13:07;100669.75;;;13.76;66.20
7264;BME280;3673;52.480;13.348;2023-02-21T03:15:43;100673.72;;;13.45;66.54
7264;BME280;3673;52.480;13.348;2023-02-21T03:18:19;100665.31;;;13.80;65.31
7264;BME280;3673;52.480;13.348;2023-02-21T03:20:53;100677.00;;;13.61;65.67
7264;BME280;3673;52.480;13.348;2023-02-21T03:23:27;100656.25;;;13.99;65.35
7264;BME280;3673;52.480;13.348;2023-02-21T03:25:59;100657.13;;;14.00;64.74
7264;BME280;3673;52.480;13.348;2023-02-21T03:28:28;100650.09;;;14.52;63.74
7264;BME280;3673;52.480;13.348;2023-02-21T03:30:57;100665.72;;;14.08;64.27
7264;BME280;3673;52.480;13.348;2023-02-21T03:33:25;100664.78;;;14.12;64.00
7264;BME280;3673;52.480;13.348;2023-02-21T03:35:52;100663.25;;;14.00;64.57
7264;BME280;3673;52.480;13.348;2023-02-21T03:38:20;100661.50;;;13.99;64.38
7264;BME280;3673;52.480;13.348;2023-02-21T03:40:48;100674.34;;;13.64;65.12
7264;BME280;3673;52.480;13.348;2023-02-21T03:43:14;100669.09;;;14.17;64.37
7264;BME280;3673;52.480;13.348;2023-02-21T03:45:41;100667.94;;;14.35;63.66
7264;BME280;3673;52.480;13.348;2023-02-21T03:48:08;100678.03;;;14.07;64.38
7264;BME280;3673;52.480;13.348;2023-02-21T03:50:35;100666.16;;;13.83;64.64
7264;BME280;3673;52.480;13.348;2023-02-21T03:53:02;100660.03;;;13.81;64.51
7264;BME280;3673;52.480;13.348;2023-02-21T03:55:29;100669.81;;;13.73;65.20
7264;BME280;3673;52.480;13.348;2023-02-21T03:57:57;100664.56;;;13.72;64.76
7264;BME280;3673;52.480;13.348;2023-02-21T04:00:24;100669.81;;;14.25;63.56
7264;BME280;3673;52.480;13.348;2023-02-21T04:02:50;100666.91;;;13.90;64.53
7264;BME280;3673;52.480;13.348;2023-02-21T04:05:17;100680.84;;;13.95;64.24
7264;BME280;3673;52.480;13.348;2023-02-21T04:07:44;100677.78;;;14.22;63.79
7264;BME280;3673;52.480;13.348;2023-02-21T04:10:11;100682.84;;;14.36;63.01
7264;BME280;3673;52.480;13.348;2023-02-21T04:12:37;100690.50;;;13.96;62.87
7264;BME280;3673;52.480;13.348;2023-02-21T04:15:07;100689.09;;;13.74;64.95
7264;BME280;3673;52.480;13.348;2023-02-21T04:17:33;100686.56;;;13.65;65.11
7264;BME280;3673;52.480;13.348;2023-02-21T04:20:00;100694.94;;;13.92;63.64
7264;BME280;3673;52.480;13.348;2023-02-21T04:22:27;100696.97;;;14.79;61.62
7264;BME280;3673;52.480;13.348;2023-02-21T04:24:54;100688.63;;;14.56;61.72
7264;BME280;3673;52.480;13.348;2023-02-21T04:27:20;100703.53;;;14.02;63.91
7264;BME280;3673;52.480;13.348;2023-02-21T04:29:47;100697.09;;;14.21;62.97
7264;BME280;3673;52.480;13.348;2023-02-21T04:32:15;100705.25;;;14.06;63.20
7264;BME280;3673;52.480;13.348;2023-02-21T04:34:42;100692.09;;;14.06;63.24
7264;BME280;3673;52.480;13.348;2023-02-21T04:37:09;100706.13;;;14.05;63.26
7264;BME280;3673;52.480;13.348;2023-02-21T04:39:36;100713.84;;;14.17;63.33
7264;BME280;3673;52.480;13.348;2023-02-21T04:42:03;100711.38;;;14.07;64.34
7264;BME280;3673;52.480;13.348;2023-02-21T04:44:29;100712.50;;;13.89;64.88
7264;BME280;3673;52.480;13.348;2023-02-21T04:46:56;100714.81;;;14.10;64.55
7264;BME280;3673;52.480;13.348;2023-02-21T04:49:24;100707.88;;;14.05;65.36
7264;BME280;3673;52.480;13.348;2023-02-21T04:51:52;100705.34;;;14.00;65.52
7264;BME280;3673;52.480;13.348;2023-02-21T04:54:19;100708.75;;;13.47;66.83
7264;BME280;3673;52.480;13.348;2023-02-21T04:56:45;100709.03;;;13.87;66.46
7264;BME280;3673;52.480;13.348;2023-02-21T04:59:12;100695.19;;;14.31;65.27
7264;BME280;3673;52.480;13.348;2023-02-21T05:01:39;100697.31;;;14.08;65.45
7264;BME280;3673;52.480;13.348;2023-02-21T05:04:06;100706.75;;;13.63;66.46
7264;BME280;3673;52.480;13.348;2023-02-21T05:06:34;100705.44;;;13.94;66.09
7264;BME280;3673;52.480;13.348;2023-02-21T05:09:02;100707.28;;;13.87;66.92
7264;BME280;3673;52.480;13.348;2023-02-21T05:11:32;100699.81;;;13.59;66.52
7264;BME280;3673;52.480;13.348;2023-02-21T05:14:00;100707.59;;;13.65;66.94
7264;BME280;3673;52.480;13.348;2023-02-21T05:16:27;100714.66;;;13.61;67.16
7264;BME280;3673;52.480;13.348;2023-02-21T05:18:55;100709.00;;;13.90;66.88
7264;BME280;3673;52.480;13.348;2023-02-21T05:21:22;100715.09;;;13.92;66.13
7264;BME280;3673;52.480;13.348;2023-02-21T05:23:50;100711.97;;;14.24;65.48
7264;BME280;3673;52.480;13.348;2023-02-21T05:26:24;100714.72;;;14.16;65.26
7264;BME280;3673;52.480;13.348;2023-02-21T05:28:52;100714.56;;;14.27;65.80
7264;BME280;3673;52.480;13.348;2023-02-21T05:31:19;100711.38;;;14.07;65.56
7264;BME280;3673;52.480;13.348;2023-02-21T05:33:46;100714.59;;;13.67;66.45
7264;BME280;3673;52.480;13.348;2023-02-21T05:36:13;100706.63;;;14.28;65.77
7264;BME280;3673;52.480;13.348;2023-02-21T05:38:44;100713.25;;;14.52;65.37
7264;BME280;3673;52.480;13.348;2023-02-21T05:41:14;100713.31;;;14.49;64.26
7264;BME280;3673;52.480;13.348;2023-02-21T05:43:43;100720.97;;;14.09;66.26
7264;BME280;3673;52.480;13.348;2023-02-21T05:46:18;100718.56;;;14.51;65.46
7264;BME280;3673;52.480;13.348;2023-02-21T05:48:45;100734.19;;;14.06;66.25
7264;BME280;3673;52.480;13.348;2023-02-21T05:51:11;100721.06;;;14.03;66.86
7264;BME280;3673;52.480;13.348;2023-02-21T05:53:38;100722.34;;;13.75;67.10
7264;BME280;3673;52.480;13.348;2023-02-21T05:56:05;100730.00;;;14.50;65.75
7264;BME280;3673;52.480;13.348;2023-02-21T05:58:34;100744.41;;;13.65;67.34
7264;BME280;3673;52.480;13.348;2023-02-21T06:01:02;100739.94;;;13.73;67.13
7264;BME280;3673;52.480;13.348;2023-02-21T06:03:29;100746.06;;;13.73;67.64
7264;BME280;3673;52.480;13.348;2023-02-21T06:05:55;100758.38;;;13.70;67.43
7264;BME280;3673;52.480;13.348;2023-02-21T06:08:22;100747.66;;;13.83;67.69
7264;BME280;3673;52.480;13.348;2023-02-21T06:10:50;100753.34;;;13.53;68.31
7264;BME280;3673;52.480;13.348;2023-02-21T06:13:17;100753.56;;;13.99;67.01
7264;BME280;3673;52.480;13.348;2023-02-21T06:15:45;100764.69;;;13.57;68.28
7264;BME280;3673;52.480;13.348;2023-02-21T06:18:12;100764.38;;;13.79;67.74
7264;BME280;3673;52.480;13.348;2023-02-21T06:20:40;100770.03;;;13.49;68.23
7264;BME280;3673;52.480;13.348;2023-02-21T06:23:07;100769.56;;;13.84;67.16
7264;BME280;3673;52.480;13.348;2023-02-21T06:25:34;100762.97;;;14.17;66.73
7264;BME280;3673;52.480;13.348;2023-02-21T06:28:00;100774.59;;;14.01;65.69
7264;BME280;3673;52.480;13.348;2023-02-21T06:30:27;100786.97;;;13.91;67.12
7264;BME280;3673;52.480;13.348;2023-02-21T06:32:55;100792.38;;;13.82;67.53
7264;BME280;3673;52.480;13.348;2023-02-21T06:35:22;100794.50;;;13.53;67.88
7264;BME280;3673;52.480;13.348;2023-02-21T06:37:49;100787.53;;;13.50;68.65
7264;BME280;3673;52.480;13.348;2023-02-21T06:40:16;100792.88;;;13.41;68.56
7264;BME280;3673;52.480;13.348;2023-02-21T06:42:42;100789.81;;;13.77;67.69
7264;BME280;3673;52.480;13.348;2023-02-21T06:45:09;100780.22;;;14.36;66.13
7264;BME280;3673;52.480;13.348;2023-02-21T06:47:36;100787.34;;;14.81;64.67
7264;BME280;3673;52.480;13.348;2023-02-21T06:50:05;100792.47;;;14.38;65.33
7264;BME280;3673;52.480;13.348;2023-02-21T06:52:32;100804.50;;;13.93;66.63
7264;BME280;3673;52.480;13.348;2023-02-21T06:54:59;100811.00;;;13.65;67.96
7264;BME280;3673;52.480;13.348;2023-02-21T06:57:25;100815.81;;;13.28;68.88
7264;BME280;3673;52.480;13.348;2023-02-21T06:59:52;100818.16;;;13.53;69.05
7264;BME280;3673;52.480;13.348;2023-02-21T07:02:19;100816.78;;;13.93;68.09
7264;BME280;3673;52.480;13.348;2023-02-21T07:04:46;100815.53;;;14.20;66.78
7264;BME280;3673;52.480;13.348;2023-02-21T07:07:15;100825.97;;;14.24;66.60
7264;BME280;3673;52.480;13.348;2023-02-21T07:09:42;100833.25;;;14.06;66.90
7264;BME280;3673;52.480;13.348;2023-02-21T07:12:08;100843.69;;;14.71;65.09
7264;BME280;3673;52.480;13.348;2023-02-21T07:14:35;100844.34;;;14.29;65.75
7264;BME280;3673;52.480;13.348;2023-02-21T07:17:02;100856.19;;;13.94;67.02
7264;BME280;3673;52.480;13.348;2023-02-21T07:19:29;100854.84;;;14.33;66.11
7264;BME280;3673;52.480;13.348;2023-02-21T07:21:56;100866.72;;;13.98;66.14
7264;BME280;3673;52.480;13.348;2023-02-21T07:24:24;100871.19;;;13.88;67.17
7264;BME280;3673;52.480;13.348;2023-02-21T07:26:51;100873.47;;;14.17;66.39
7264;BME280;3673;52.480;13.348;2023-02-21T07:29:18;100866.41;;;14.78;64.67
7264;BME280;3673;52.480;13.348;2023-02-21T07:31:44;100880.25;;;14.33;65.39
7264;BME280;3673;52.480;13.348;2023-02-21T07:34:11;100884.28;;;13.91;67.16
7264;BME280;3673;52.480;13.348;2023-02-21T07:36:39;100891.59;;;13.69;67.15
7264;BME280;3673;52.480;13.348;2023-02-21T07:39:06;100888.47;;;13.31;67.96
7264;BME280;3673;52.480;13.348;2023-02-21T07:41:34;100884.28;;;13.92;67.44
7264;BME280;3673;52.480;13.348;2023-02-21T07:44:01;100886.75;;;14.05;66.13
7264;BME280;3673;52.480;13.348;2023-02-21T07:46:28;100884.34;;;13.89;67.21
7264;BME280;3673;52.480;13.348;2023-02-21T07:48:55;100890.59;;;13.78;67.01
7264;BME280;3673;52.480;13.348;2023-02-21T07:51:26;100884.91;;;14.13;65.41
7264;BME280;3673;52.480;13.348;2023-02-21T07:53:53;100886.34;;;14.39;65.08
7264;BME280;3673;52.480;13.348;2023-02-21T07:56:19;100892.94;;;14.04;64.98
7264;BME280;3673;52.480;13.348;2023-02-21T07:58:47;100891.19;;;14.01;65.73
7264;BME280;3673;52.480;13.348;2023-02-21T08:01:14;100893.25;;;13.76;66.55
7264;BME280;3673;52.480;13.348;2023-02-21T08:03:41;100903.31;;;14.13;65.72
7264;BME280;3673;52.480;13.348;2023-02-21T08:06:09;100902.78;;;13.85;65.85
7264;BME280;3673;52.480;13.348;2023-02-21T08:08:36;100898.16;;;14.05;64.38
7264;BME280;3673;52.480;13.348;2023-02-21T08:11:03;100899.47;;;13.71;65.07
7264;BME280;3673;52.480;13.348;2023-02-21T08:13:30;100903.13;;;14.28;63.73
7264;BME280;3673;52.480;13.348;2023-02-21T08:15:58;100903.94;;;14.92;61.53
7264;BME280;3673;52.480;13.348;2023-02-21T08:18:25;100919.47;;;14.54;61.28
7264;BME280;3673;52.480;13.348;2023-02-21T08:20:53;100934.63;;;14.35;61.97
7264;BME280;3673;52.480;13.348;2023-02-21T08:23:20;100937.03;;;14.52;61.10
7264;BME280;3673;52.480;13.348;2023-02-21T08:25:48;100926.88;;;14.23;61.95
7264;BME280;3673;52.480;13.348;2023-02-21T08:28:16;100929.81;;;14.01;62.13
7264;BME280;3673;52.480;13.348;2023-02-21T08:30:43;100922.44;;;14.25;60.34
7264;BME280;3673;52.480;13.348;2023-02-21T08:33:11;100931.38;;;14.79;59.17
7264;BME280;3673;52.480;13.348;2023-02-21T08:35:37;100937.41;;;14.23;59.43
7264;BME280;3673;52.480;13.348;2023-02-21T08:38:04;100929.88;;;14.62;59.18
7264;BME280;3673;52.480;13.348;2023-02-21T08:40:31;100927.75;;;14.86;59.06
7264;BME280;3673;52.480;13.348;2023-02-21T08:42:59;100915.31;;;14.94;58.83
7264;BME280;3673;52.480;13.348;2023-02-21T08:45:28;100931.13;;;14.35;60.00
7264;BME280;3673;52.480;13.348;2023-02-21T08:47:56;100929.47;;;14.89;59.06
7264;BME280;3673;52.480;13.348;2023-02-21T08:50:27;100939.38;;;14.73;59.17
7264;BME280;3673;52.480;13.348;2023-02-21T08:52:55;100943.19;;;14.54;59.93
7264;BME280;3673;52.480;13.348;2023-02-21T08:55:23;100932.34;;;14.74;59.53
7264;BME280;3673;52.480;13.348;2023-02-21T08:57:53;100944.94;;;14.54;58.96
7264;BME280;3673;52.480;13.348;2023-02-21T09:00:23;100945.47;;;14.77;59.16
7264;BME280;3673;52.480;13.348;2023-02-21T09:02:53;100941.88;;;15.36;57.92
7264;BME280;3673;52.480;13.348;2023-02-21T09:05:24;100944.19;;;15.02;58.49
7264;BME280;3673;52.480;13.348;2023-02-21T09:07:52;100948.16;;;14.74;59.18
7264;BME280;3673;52.480;13.348;2023-02-21T09:10:20;100948.03;;;15.36;57.11
7264;BME280;3673;52.480;13.348;2023-02-21T09:12:47;100949.41;;;14.46;58.79
7264;BME280;3673;52.480;13.348;2023-02-21T09:15:14;100954.88;;;14.93;57.71
7264;BME280;3673;52.480;13.348;2023-02-21T09:17:41;100943.41;;;14.97;57.88
7264;BME280;3673;52.480;13.348;2023-02-21T09:20:12;100959.66;;;14.67;58.09
7264;BME280;3673;52.480;13.348;2023-02-21T09:22:41;100954.44;;;14.62;58.48
7264;BME280;3673;52.480;13.348;2023-02-21T09:25:10;100948.78;;;15.41;57.19
7264;BME280;3673;52.480;13.348;2023-02-21T09:27:37;100958.19;;;15.06;57.61
7264;BME280;3673;52.480;13.348;2023-02-21T09:30:07;100961.53;;;14.60;58.76
7264;BME280;3673;52.480;13.348;2023-02-21T09:32:35;100971.22;;;14.57;58.47
7264;BME280;3673;52.480;13.348;2023-02-21T09:35:02;100964.28;;;15.09;57.48
7264;BME280;3673;52.480;13.348;2023-02-21T09:37:29;100973.56;;;15.33;56.46
7264;BME280;3673;52.480;13.348;2023-02-21T09:39:58;100981.63;;;15.22;56.63
7264;BME280;3673;52.480;13.348;2023-02-21T09:42:28;100977.03;;;14.78;57.62
7264;BME280;3673;52.480;13.348;2023-02-21T09:44:56;100983.06;;;15.41;56.52
7264;BME280;3673;52.480;13.348;2023-02-21T09:47:27;100967.28;;;15.40;56.58
7264;BME280;3673;52.480;13.348;2023-02-21T09:49:59;100976.25;;;15.30;56.80
7264;BME280;3673;52.480;13.348;2023-02-21T09:52:32;100975.81;;;15.57;56.22
7264;BME280;3673;52.480;13.348;2023-02-21T09:55:06;100986.38;;;15.56;56.51
7264;BME280;3673;52.480;13.348;2023-02-21T09:57:35;100981.69;;;15.19;56.89
7264;BME280;3673;52.480;13.348;2023-02-21T10:00:15;100988.94;;;15.05;57.11
7264;BME280;3673;52.480;13.348;2023-02-21T10:02:56;100995.31;;;15.47;56.57
7264;BME280;3673;52.480;13.348;2023-02-21T10:05:37;100992.91;;;15.33;55.83
7264;BME280;3673;52.480;13.348;2023-02-21T10:08:16;100994.44;;;14.90;55.65
7264;BME280;3673;52.480;13.348;2023-02-21T10:10:47;100985.81;;;15.35;54.89
7264;BME280;3673;52.480;13.348;2023-02-21T10:13:35;100988.28;;;15.44;53.67
7264;BME280;3673;52.480;13.348;2023-02-21T10:16:11;100999.34;;;14.53;55.58
7264;BME280;3673;52.480;13.348;2023-02-21T10:18:43;100991.31;;;15.23;54.29
7264;BME280;3673;52.480;13.348;2023-02-21T10:21:20;100980.25;;;15.55;52.97
7264;BME280;3673;52.480;13.348;2023-02-21T10:23:50;100988.44;;;14.80;55.03
7264;BME280;3673;52.480;13.348;2023-02-21T10:26:24;100987.72;;;15.79;52.99
7264;BME280;3673;52.480;13.348;2023-02-21T10:28:53;100995.38;;;15.42;54.06
7264;BME280;3673;52.480;13.348;2023-02-21T10:31:33;100995.22;;;15.53;53.82
7264;BME280;3673;52.480;13.348;2023-02-21T10:34:02;100997.44;;;15.76;53.60
7264;BME280;3673;52.480;13.348;2023-02-21T10:36:32;101012.16;;;15.37;54.33
7264;BME280;3673;52.480;13.348;2023-02-21T10:39:08;101020.19;;;15.29;55.12
7264;BME280;3673;52.480;13.348;2023-02-21T10:41:39;101004.28;;;15.35;54.73
7264;BME280;3673;52.480;13.348;2023-02-21T10:44:11;101013.41;;;15.13;54.38
7264;BME280;3673;52.480;13.348;2023-02-21T10:46:43;101001.84;;;14.62;55.20
7264;BME280;3673;52.480;13.348;2023-02-21T10:49:21;100997.72;;;15.07;54.35
7264;BME280;3673;52.480;13.348;2023-02-21T10:52:04;101026.81;;;14.28;55.96
7264;BME280;3673;52.480;13.348;2023-02-21T10:54:31;101005.91;;;14.84;54.00
7264;BME280;3673;52.480;13.348;2023-02-21T10:57:01;101013.78;;;14.89;53.82
7264;BME280;3673;52.480;13.348;2023-02-21T10:59:33;101014.66;;;14.89;54.19
7264;BME280;3673;52.480;13.348;2023-02-21T11:02:07;101004.53;;;15.19;53.60
7264;BME280;3673;52.480;13.348;2023-02-21T11:04:50;101013.16;;;15.30;53.70
7264;BME280;3673;52.480;13.348;2023-02-21T11:07:19;101014.66;;;14.89;54.65
7264;BME280;3673;52.480;13.348;2023-02-21T11:09:48;101011.09;;;14.93;54.26
7264;BME280;3673;52.480;13.348;2023-02-21T11:12:21;101020.00;;;14.82;54.35
7264;BME280;3673;52.480;13.348;2023-02-21T11:15:16;101006.13;;;15.30;53.35
7264;BME280;3673;52.480;13.348;2023-02-21T11:17:43;100995.34;;;15.44;52.63
7264;BME280;3673;52.480;13.348;2023-02-21T11:20:18;101003.28;;;14.84;53.25
7264;BME280;3673;52.480;13.348;2023-02-21T11:22:47;101006.91;;;15.37;52.11
7264;BME280;3673;52.480;13.348;2023-02-21T11:25:22;101023.72;;;14.69;52.64
7264;BME280;3673;52.480;13.348;2023-02-21T11:28:05;101024.53;;;14.74;51.58
7264;BME280;3673;52.480;13.348;2023-02-21T11:30:35;101012.44;;;15.19;50.54
7264;BME280;3673;52.480;13.348;2023-02-21T11:33:04;101000.09;;;15.76;48.58
7264;BME280;3673;52.480;13.348;2023-02-21T11:35:34;101018.16;;;15.46;49.42
7264;BME280;3673;52.480;13.348;2023-02-21T11:38:05;101011.78;;;15.05;49.68
7264;BME280;3673;52.480;13.348;2023-02-21T11:40:43;101011.72;;;15.09;50.03
7264;BME280;3673;52.480;13.348;2023-02-21T11:43:20;101013.31;;;15.19;50.14
7264;BME280;3673;52.480;13.348;2023-02-21T11:46:18;101020.19;;;15.29;49.55
7264;BME280;3673;52.480;13.348;2023-02-21T11:48:55;101010.88;;;15.62;48.26
7264;BME280;3673;52.480;13.348;2023-02-21T11:51:33;101019.56;;;15.69;47.93
7264;BME280;3673;52.480;13.348;2023-02-21T11:54:02;101013.81;;;14.84;49.58
7264;BME280;3673;52.480;13.348;2023-02-21T11:56:41;101017.41;;;14.80;50.21
7264;BME280;3673;52.480;13.348;2023-02-21T11:59:25;101017.50;;;15.86;48.12
7264;BME280;3673;52.480;13.348;2023-02-21T12:02:17;101014.88;;;14.74;50.36
7264;BME280;3673;52.480;13.348;2023-02-21T12:04:58;101035.25;;;15.21;49.78
7264;BME280;3673;52.480;13.348;2023-02-21T12:07:36;101015.91;;;15.22;50.19
7264;BME280;3673;52.480;13.348;2023-02-21T12:10:27;101015.28;;;16.11;48.47
7264;BME280;3673;52.480;13.348;2023-02-21T12:13:05;101034.75;;;14.95;49.98
7264;BME280;3673;52.480;13.348;2023-02-21T12:15:45;101020.94;;;15.37;49.35
7264;BME280;3673;52.480;13.348;2023-02-21T12:18:48;101020.03;;;15.40;49.41
7264;BME280;3673;52.480;13.348;2023-02-21T12:21:33;101030.34;;;15.55;48.37
7264;BME280;3673;52.480;13.348;2023-02-21T12:24:17;101032.22;;;14.89;50.24
7264;BME280;3673;52.480;13.348;2023-02-21T12:26:53;101037.63;;;15.38;49.29
7264;BME280;3673;52.480;13.348;2023-02-21T12:29:45;101036.59;;;14.88;50.38
7264;BME280;3673;52.480;13.348;2023-02-21T12:32:43;101029.47;;;15.55;48.94
7264;BME280;3673;52.480;13.348;2023-02-21T12:36:10;101025.84;;;16.11;47.75
7264;BME280;3673;52.480;13.348;2023-02-21T12:39:01;101026.28;;;15.86;48.32
7264;BME280;3673;52.480;13.348;2023-02-21T12:41:44;101018.69;;;16.16;47.44
7264;BME280;3673;52.480;13.348;2023-02-21T12:44:20;101023.66;;;16.32;47.20
7264;BME280;3673;52.480;13.348;2023-02-21T12:46:54;101029.13;;;15.19;49.34
7264;BME280;3673;52.480;13.348;2023-02-21T12:49:28;101027.78;;;14.92;50.57
7264;BME280;3673;52.480;13.348;2023-02-21T12:52:02;101008.78;;;15.29;49.88
7264;BME280;3673;52.480;13.348;2023-02-21T12:54:39;101024.94;;;15.05;49.13
7264;BME280;3673;52.480;13.348;2023-02-21T12:57:13;101027.38;;;15.20;48.68
7264;BME280;3673;52.480;13.348;2023-02-21T12:59:54;101023.97;;;15.13;48.80
7264;BME280;3673;52.480;13.348;2023-02-21T13:02:29;101013.88;;;14.81;48.52
7264;BME280;3673;52.480;13.348;2023-02-21T13:05:06;101024.91;;;15.09;48.26
7264;BME280;3673;52.480;13.348;2023-02-21T13:07:42;101017.50;;;14.74;48.53
7264;BME280;3673;52.480;13.348;2023-02-21T13:10:17;101018.13;;;14.93;47.87
7264;BME280;3673;52.480;13.348;2023-02-21T13:12:50;101003.44;;;15.32;47.02
7264;BME280;3673;52.480;13.348;2023-02-21T13:15:22;101008.50;;;15.98;45.62
7264;BME280;3673;52.480;13.348;2023-02-21T13:17:58;101012.19;;;16.76;44.61
7264;BME280;3673;52.480;13.348;2023-02-21T13:20:34;101020.91;;;16.37;44.65
7264;BME280;3673;52.480;13.348;2023-02-21T13:26:48;101003.09;;;16.04;45.75
7264;BME280;3673;52.480;13.348;2023-02-21T13:29:20;100992.28;;;15.70;46.42
7264;BME280;3673;52.480;13.348;2023-02-21T13:31:54;100997.38;;;15.80;45.96
7264;BME280;3673;52.480;13.348;2023-02-21T13:34:25;101007.88;;;15.30;46.85
7264;BME280;3673;52.480;13.348;2023-02-21T13:37:00;100997.84;;;16.02;45.32
7264;BME280;3673;52.480;13.348;2023-02-21T13:39:31;100997.50;;;15.73;45.46
7264;BME280;3673;52.480;13.348;2023-02-21T13:42:05;100991.34;;;16.20;44.57
7264;BME280;3673;52.480;13.348;2023-02-21T13:44:37;100996.50;;;15.80;45.04
7264;BME280;3673;52.480;13.348;2023-02-21T13:47:12;101007.47;;;15.57;45.65